sensor_id;sensor_type;location;lat;lon;timestamp;P1;durP1;ratioP1;P2;durP2;ratioP2
49241;SDS011;35079;52.704;13.814;2023-08-12T00:02:10;7.15;;;2.40;;
49241;SDS011;35079;52.704;13.814;2023-08-12T00:04:36;3.03;;;2.13;;
49241;SDS011;35079;52.704;13.814;2023-08-12T00:07:02;2.60;;;2.13;;
49241;SDS011;35079;52.704;13.814;2023-08-12T00:09:28;4.60;;;2.30;;
49241;SDS011;35079;52.704;13.814;2023-08-12T00:11:53;4.35;;;2.40;;
49241;SDS011;35079;52.704;13.814;2023-08-12T00:14:19;5.00;;;1.83;;
49241;SDS011;35079;52.704;13.814;2023-08-12T00:16:45;2.88;;;1.98;;
49241;SDS011;35079;52.704;13.814;2023-08-12T00:19:10;4.15;;;2.05;;
49241;SDS011;35079;52.704;13.814;2023-08-12T00:21:36;2.17;;;1.98;;
49241;SDS011;35079;52.704;13.814;2023-08-12T00:24:02;3.05;;;2.10;;
49241;SDS011;35079;52.704;13.814;2023-08-12T00:26:28;7.93;;;2.30;;
49241;SDS011;35079;52.704;13.814;2023-08-12T00:28:54;2.67;;;1.92;;
49241;SDS011;35079;52.704;13.814;2023-08-12T00:31:19;3.10;;;2.10;;
49241;SDS011;35079;52.704;13.814;2023-08-12T00:33:45;8.70;;;2.33;;
49241;SDS011;35079;52.704;13.814;2023-08-12T00:36:11;4.22;;;2.10;;
49241;SDS011;35079;52.704;13.814;2023-08-12T00:38:36;9.20;;;2.35;;
49241;SDS011;35079;52.704;13.814;2023-08-12T00:41:03;4.13;;;2.30;;
49241;SDS011;35079;52.704;13.814;2023-08-12T00:43:28;6.10;;;2.20;;
49241;SDS011;35079;52.704;13.814;2023-08-12T00:45:54;4.55;;;2.17;;
49241;SDS011;35079;52.704;13.814;2023-08-12T00:48:20;5.00;;;2.40;;
49241;SDS011;35079;52.704;13.814;2023-08-12T00:50:46;4.30;;;2.50;;
49241;SDS011;35079;52.704;13.814;2023-08-12T00:53:12;7.38;;;2.33;;
49241;SDS011;35079;52.704;13.814;2023-08-12T00:55:38;2.97;;;2.10;;
49241;SDS011;35079;52.704;13.814;2023-08-12T00:58:04;3.08;;;2.10;;
49241;SDS011;35079;52.704;13.814;2023-08-12T01:00:30;3.95;;;2.15;;
49241;SDS011;35079;52.704;13.814;2023-08-12T01:02:57;4.30;;;2.15;;
49241;SDS011;35079;52.704;13.814;2023-08-12T01:05:23;4.53;;;2.22;;
49241;SDS011;35079;52.704;13.814;2023-08-12T01:07:48;4.47;;;2.20;;
49241;SDS011;35079;52.704;13.814;2023-08-12T01:10:14;3.28;;;2.00;;
49241;SDS011;35079;52.704;13.814;2023-08-12T01:12:44;2.78;;;2.08;;
49241;SDS011;35079;52.704;13.814;2023-08-12T01:15:13;5.25;;;2.20;;
49241;SDS011;35079;52.704;13.814;2023-08-12T01:17:42;4.43;;;2.55;;
49241;SDS011;35079;52.704;13.814;2023-08-12T01:20:09;6.50;;;2.08;;
49241;SDS011;35079;52.704;13.814;2023-08-12T01:22:40;3.92;;;2.20;;
49241;SDS011;35079;52.704;13.814;2023-08-12T01:25:09;4.13;;;2.40;;
49241;SDS011;35079;52.704;13.814;2023-08-12T01:27:35;3.13;;;2.30;;
49241;SDS011;35079;52.704;13.814;2023-08-12T01:30:01;2.40;;;2.13;;
49241;SDS011;35079;52.704;13.814;2023-08-12T01:32:34;5.03;;;2.47;;
49241;SDS011;35079;52.704;13.814;2023-08-12T01:35:19;5.28;;;2.30;;
49241;SDS011;35079;52.704;13.814;2023-08-12T01:37:49;2.60;;;2.10;;
49241;SDS011;35079;52.704;13.814;2023-08-12T01:40:17;3.22;;;2.20;;
49241;SDS011;35079;52.704;13.814;2023-08-12T01:42:44;5.13;;;2.33;;
49241;SDS011;35079;52.704;13.814;2023-08-12T01:45:10;3.63;;;2.20;;
49241;SDS011;35079;52.704;13.814;2023-08-12T01:47:36;4.78;;;2.20;;
49241;SDS011;35079;52.704;13.814;2023-08-12T01:50:05;3.80;;;2.30;;
49241;SDS011;35079;52.704;13.814;2023-08-12T01:52:31;5.45;;;2.40;;
49241;SDS011;35079;52.704;13.814;2023-08-12T01:54:57;8.10;;;2.28;;
49241;SDS011;35079;52.704;13.814;2023-08-12T01:57:22;6.88;;;2.65;;
49241;SDS011;35079;52.704;13.814;2023-08-12T01:59:49;5.80;;;2.47;;
49241;SDS011;35079;52.704;13.814;2023-08-12T02:02:16;3.58;;;2.30;;
49241;SDS011;35079;52.704;13.814;2023-08-12T02:04:41;2.65;;;2.25;;
49241;SDS011;35079;52.704;13.814;2023-08-12T02:07:08;4.63;;;2.10;;
49241;SDS011;35079;52.704;13.814;2023-08-12T02:09:33;2.53;;;2.30;;
49241;SDS011;35079;52.704;13.814;2023-08-12T02:11:59;6.05;;;2.55;;
49241;SDS011;35079;52.704;13.814;2023-08-12T02:14:25;3.58;;;2.28;;
49241;SDS011;35079;52.704;13.814;2023-08-12T02:16:50;4.85;;;2.50;;
49241;SDS011;35079;52.704;13.814;2023-08-12T02:19:16;3.85;;;2.47;;
49241;SDS011;35079;52.704;13.814;2023-08-12T02:21:42;5.25;;;2.42;;
49241;SDS011;35079;52.704;13.814;2023-08-12T02:24:08;6.22;;;2.90;;
49241;SDS011;35079;52.704;13.814;2023-08-12T02:26:34;2.75;;;2.53;;
49241;SDS011;35079;52.704;13.814;2023-08-12T02:29:00;4.63;;;2.45;;
49241;SDS011;35079;52.704;13.814;2023-08-12T02:31:25;3.10;;;2.65;;
49241;SDS011;35079;52.704;13.814;2023-08-12T02:33:51;5.80;;;3.05;;
49241;SDS011;35079;52.704;13.814;2023-08-12T02:36:17;3.80;;;2.97;;
49241;SDS011;35079;52.704;13.814;2023-08-12T02:38:42;3.55;;;2.40;;
49241;SDS011;35079;52.704;13.814;2023-08-12T02:41:08;4.43;;;3.10;;
49241;SDS011;35079;52.704;13.814;2023-08-12T02:43:34;3.95;;;2.78;;
49241;SDS011;35079;52.704;13.814;2023-08-12T02:46:00;4.38;;;2.30;;
49241;SDS011;35079;52.704;13.814;2023-08-12T02:48:26;5.18;;;2.90;;
49241;SDS011;35079;52.704;13.814;2023-08-12T02:50:51;6.13;;;2.63;;
49241;SDS011;35079;52.704;13.814;2023-08-12T02:53:17;3.70;;;2.70;;
49241;SDS011;35079;52.704;13.814;2023-08-12T02:55:46;4.82;;;2.92;;
49241;SDS011;35079;52.704;13.814;2023-08-12T02:58:11;6.95;;;3.15;;
49241;SDS011;35079;52.704;13.814;2023-08-12T03:00:37;4.85;;;3.20;;
49241;SDS011;35079;52.704;13.814;2023-08-12T03:03:07;4.60;;;2.95;;
49241;SDS011;35079;52.704;13.814;2023-08-12T03:05:32;9.27;;;3.20;;
49241;SDS011;35079;52.704;13.814;2023-08-12T03:07:58;4.32;;;3.10;;
49241;SDS011;35079;52.704;13.814;2023-08-12T03:10:26;9.23;;;3.05;;
49241;SDS011;35079;52.704;13.814;2023-08-12T03:12:52;5.15;;;2.70;;
49241;SDS011;35079;52.704;13.814;2023-08-12T03:15:18;4.88;;;2.88;;
49241;SDS011;35079;52.704;13.814;2023-08-12T03:17:47;4.28;;;3.08;;
49241;SDS011;35079;52.704;13.814;2023-08-12T03:20:14;6.43;;;3.17;;
49241;SDS011;35079;52.704;13.814;2023-08-12T03:22:39;4.15;;;3.05;;
49241;SDS011;35079;52.704;13.814;2023-08-12T03:25:05;5.70;;;3.42;;
49241;SDS011;35079;52.704;13.814;2023-08-12T03:27:31;5.97;;;3.30;;
49241;SDS011;35079;52.704;13.814;2023-08-12T03:29:57;4.22;;;3.20;;
49241;SDS011;35079;52.704;13.814;2023-08-12T03:32:24;7.82;;;3.30;;
49241;SDS011;35079;52.704;13.814;2023-08-12T03:34:50;6.15;;;3.08;;
49241;SDS011;35079;52.704;13.814;2023-08-12T03:37:16;7.40;;;3.45;;
49241;SDS011;35079;52.704;13.814;2023-08-12T03:39:42;7.28;;;3.75;;
49241;SDS011;35079;52.704;13.814;2023-08-12T03:42:07;4.25;;;3.03;;
49241;SDS011;35079;52.704;13.814;2023-08-12T03:44:33;3.75;;;3.42;;
49241;SDS011;35079;52.704;13.814;2023-08-12T03:46:59;6.13;;;3.10;;
49241;SDS011;35079;52.704;13.814;2023-08-12T03:49:24;6.10;;;3.03;;
49241;SDS011;35079;52.704;13.814;2023-08-12T03:51:50;4.72;;;3.17;;
49241;SDS011;35079;52.704;13.814;2023-08-12T03:54:16;4.63;;;3.28;;
49241;SDS011;35079;52.704;13.814;2023-08-12T03:56:41;3.88;;;3.17;;
49241;SDS011;35079;52.704;13.814;2023-08-12T03:59:07;6.25;;;3.53;;
49241;SDS011;35079;52.704;13.814;2023-08-12T04:01:33;5.38;;;3.03;;
49241;SDS011;35079;52.704;13.814;2023-08-12T04:03:58;5.10;;;3.42;;
49241;SDS011;35079;52.704;13.814;2023-08-12T04:06:24;6.18;;;3.47;;
49241;SDS011;35079;52.704;13.814;2023-08-12T04:08:50;4.28;;;3.20;;
49241;SDS011;35079;52.704;13.814;2023-08-12T04:11:16;4.35;;;3.33;;
49241;SDS011;35079;52.704;13.814;2023-08-12T04:13:41;7.15;;;3.38;;
49241;SDS011;35079;52.704;13.814;2023-08-12T04:16:07;5.75;;;3.42;;
49241;SDS011;35079;52.704;13.814;2023-08-12T04:18:33;5.88;;;3.30;;
49241;SDS011;35079;52.704;13.814;2023-08-12T04:21:01;7.22;;;3.38;;
49241;SDS011;35079;52.704;13.814;2023-08-12T04:23:27;7.85;;;3.60;;
49241;SDS011;35079;52.704;13.814;2023-08-12T04:25:53;4.57;;;3.70;;
49241;SDS011;35079;52.704;13.814;2023-08-12T04:28:19;4.32;;;3.50;;
49241;SDS011;35079;52.704;13.814;2023-08-12T04:30:46;5.70;;;3.10;;
49241;SDS011;35079;52.704;13.814;2023-08-12T04:33:12;5.35;;;3.40;;
49241;SDS011;35079;52.704;13.814;2023-08-12T04:35:39;6.30;;;3.28;;
49241;SDS011;35079;52.704;13.814;2023-08-12T04:38:05;7.93;;;3.42;;
49241;SDS011;35079;52.704;13.814;2023-08-12T04:40:31;4.93;;;3.17;;
49241;SDS011;35079;52.704;13.814;2023-08-12T04:43:00;5.57;;;3.40;;
49241;SDS011;35079;52.704;13.814;2023-08-12T04:45:26;7.85;;;3.83;;
49241;SDS011;35079;52.704;13.814;2023-08-12T04:47:52;4.50;;;3.75;;
49241;SDS011;35079;52.704;13.814;2023-08-12T04:50:18;5.57;;;3.67;;
49241;SDS011;35079;52.704;13.814;2023-08-12T04:52:44;7.70;;;3.83;;
49241;SDS011;35079;52.704;13.814;2023-08-12T04:55:11;5.72;;;3.65;;
49241;SDS011;35079;52.704;13.814;2023-08-12T04:57:37;4.05;;;3.45;;
49241;SDS011;35079;52.704;13.814;2023-08-12T05:00:03;7.10;;;3.63;;
49241;SDS011;35079;52.704;13.814;2023-08-12T05:02:33;4.95;;;3.47;;
49241;SDS011;35079;52.704;13.814;2023-08-12T05:04:59;6.50;;;4.18;;
49241;SDS011;35079;52.704;13.814;2023-08-12T05:07:24;7.35;;;3.72;;
49241;SDS011;35079;52.704;13.814;2023-08-12T05:09:50;5.03;;;3.85;;
49241;SDS011;35079;52.704;13.814;2023-08-12T05:12:16;5.18;;;3.60;;
49241;SDS011;35079;52.704;13.814;2023-08-12T05:14:41;6.35;;;3.40;;
49241;SDS011;35079;52.704;13.814;2023-08-12T05:17:07;5.65;;;3.00;;
49241;SDS011;35079;52.704;13.814;2023-08-12T05:19:33;5.43;;;3.35;;
49241;SDS011;35079;52.704;13.814;2023-08-12T05:21:58;3.85;;;3.00;;
49241;SDS011;35079;52.704;13.814;2023-08-12T05:24:24;4.22;;;2.70;;
49241;SDS011;35079;52.704;13.814;2023-08-12T05:26:50;4.05;;;2.95;;
49241;SDS011;35079;52.704;13.814;2023-08-12T05:29:21;3.88;;;2.50;;
49241;SDS011;35079;52.704;13.814;2023-08-12T05:31:47;5.03;;;2.90;;
49241;SDS011;35079;52.704;13.814;2023-08-12T05:34:13;6.38;;;3.33;;
49241;SDS011;35079;52.704;13.814;2023-08-12T05:36:39;3.42;;;3.13;;
49241;SDS011;35079;52.704;13.814;2023-08-12T05:39:05;5.68;;;2.70;;
49241;SDS011;35079;52.704;13.814;2023-08-12T05:41:31;4.95;;;2.47;;
49241;SDS011;35079;52.704;13.814;2023-08-12T05:43:57;4.82;;;2.47;;
49241;SDS011;35079;52.704;13.814;2023-08-12T05:46:29;3.88;;;2.70;;
49241;SDS011;35079;52.704;13.814;2023-08-12T05:48:54;3.65;;;2.97;;
49241;SDS011;35079;52.704;13.814;2023-08-12T05:51:20;3.83;;;2.70;;
49241;SDS011;35079;52.704;13.814;2023-08-12T05:53:46;6.60;;;2.88;;
49241;SDS011;35079;52.704;13.814;2023-08-12T05:56:12;7.50;;;2.63;;
49241;SDS011;35079;52.704;13.814;2023-08-12T05:58:47;3.65;;;2.50;;
49241;SDS011;35079;52.704;13.814;2023-08-12T06:01:13;4.30;;;2.50;;
49241;SDS011;35079;52.704;13.814;2023-08-12T06:03:38;5.75;;;2.83;;
49241;SDS011;35079;52.704;13.814;2023-08-12T06:06:06;6.15;;;2.67;;
49241;SDS011;35079;52.704;13.814;2023-08-12T06:08:32;3.58;;;2.70;;
49241;SDS011;35079;52.704;13.814;2023-08-12T06:10:58;2.78;;;2.55;;
49241;SDS011;35079;52.704;13.814;2023-08-12T06:13:23;4.95;;;2.50;;
49241;SDS011;35079;52.704;13.814;2023-08-12T06:15:49;9.52;;;2.47;;
49241;SDS011;35079;52.704;13.814;2023-08-12T06:18:15;4.03;;;2.60;;
49241;SDS011;35079;52.704;13.814;2023-08-12T06:20:40;4.85;;;2.50;;
49241;SDS011;35079;52.704;13.814;2023-08-12T06:23:06;4.65;;;2.47;;
49241;SDS011;35079;52.704;13.814;2023-08-12T06:25:31;4.75;;;2.38;;
49241;SDS011;35079;52.704;13.814;2023-08-12T06:27:57;4.88;;;2.53;;
49241;SDS011;35079;52.704;13.814;2023-08-12T06:30:23;9.77;;;3.42;;
49241;SDS011;35079;52.704;13.814;2023-08-12T06:32:49;7.40;;;3.03;;
49241;SDS011;35079;52.704;13.814;2023-08-12T06:35:15;4.45;;;2.88;;
49241;SDS011;35079;52.704;13.814;2023-08-12T06:37:40;4.53;;;2.60;;
49241;SDS011;35079;52.704;13.814;2023-08-12T06:40:06;4.78;;;3.00;;
49241;SDS011;35079;52.704;13.814;2023-08-12T06:42:32;4.50;;;2.63;;
49241;SDS011;35079;52.704;13.814;2023-08-12T06:44:58;5.63;;;3.10;;
49241;SDS011;35079;52.704;13.814;2023-08-12T06:47:25;4.25;;;2.45;;
49241;SDS011;35079;52.704;13.814;2023-08-12T06:49:52;6.00;;;2.95;;
49241;SDS011;35079;52.704;13.814;2023-08-12T06:52:18;3.88;;;2.80;;
49241;SDS011;35079;52.704;13.814;2023-08-12T06:54:43;3.13;;;2.33;;
49241;SDS011;35079;52.704;13.814;2023-08-12T06:57:09;4.97;;;2.42;;
49241;SDS011;35079;52.704;13.814;2023-08-12T06:59:36;5.47;;;2.70;;
49241;SDS011;35079;52.704;13.814;2023-08-12T07:02:02;2.60;;;2.40;;
49241;SDS011;35079;52.704;13.814;2023-08-12T07:04:28;3.60;;;2.70;;
49241;SDS011;35079;52.704;13.814;2023-08-12T07:06:54;3.78;;;2.70;;
49241;SDS011;35079;52.704;13.814;2023-08-12T07:09:20;3.47;;;2.90;;
49241;SDS011;35079;52.704;13.814;2023-08-12T07:11:45;6.72;;;2.83;;
49241;SDS011;35079;52.704;13.814;2023-08-12T07:14:11;5.93;;;2.85;;
49241;SDS011;35079;52.704;13.814;2023-08-12T07:16:36;3.80;;;3.08;;
49241;SDS011;35079;52.704;13.814;2023-08-12T07:19:02;5.03;;;2.83;;
49241;SDS011;35079;52.704;13.814;2023-08-12T07:21:28;3.75;;;2.55;;
49241;SDS011;35079;52.704;13.814;2023-08-12T07:23:53;5.15;;;2.97;;
49241;SDS011;35079;52.704;13.814;2023-08-12T07:26:19;5.18;;;2.75;;
49241;SDS011;35079;52.704;13.814;2023-08-12T07:28:45;7.55;;;3.50;;
49241;SDS011;35079;52.704;13.814;2023-08-12T07:31:10;5.00;;;3.30;;
49241;SDS011;35079;52.704;13.814;2023-08-12T07:33:36;7.07;;;3.00;;
49241;SDS011;35079;52.704;13.814;2023-08-12T07:36:02;5.95;;;3.17;;
49241;SDS011;35079;52.704;13.814;2023-08-12T07:38:27;4.00;;;2.60;;
49241;SDS011;35079;52.704;13.814;2023-08-12T07:40:53;7.13;;;3.60;;
49241;SDS011;35079;52.704;13.814;2023-08-12T07:43:19;5.18;;;3.33;;
49241;SDS011;35079;52.704;13.814;2023-08-12T07:45:50;5.80;;;3.20;;
49241;SDS011;35079;52.704;13.814;2023-08-12T07:48:16;7.22;;;3.22;;
49241;SDS011;35079;52.704;13.814;2023-08-12T07:50:42;15.80;;;3.13;;
49241;SDS011;35079;52.704;13.814;2023-08-12T07:53:08;3.75;;;3.10;;
49241;SDS011;35079;52.704;13.814;2023-08-12T07:55:34;9.40;;;3.65;;
49241;SDS011;35079;52.704;13.814;2023-08-12T07:57:59;4.63;;;2.70;;
49241;SDS011;35079;52.704;13.814;2023-08-12T08:00:25;8.93;;;3.80;;
49241;SDS011;35079;52.704;13.814;2023-08-12T08:02:51;5.57;;;3.30;;
49241;SDS011;35079;52.704;13.814;2023-08-12T08:05:16;7.38;;;3.35;;
49241;SDS011;35079;52.704;13.814;2023-08-12T08:07:42;4.13;;;2.85;;
49241;SDS011;35079;52.704;13.814;2023-08-12T08:10:07;5.55;;;3.10;;
49241;SDS011;35079;52.704;13.814;2023-08-12T08:12:33;6.63;;;2.88;;
49241;SDS011;35079;52.704;13.814;2023-08-12T08:14:59;7.38;;;3.00;;
49241;SDS011;35079;52.704;13.814;2023-08-12T08:17:25;5.65;;;2.60;;
49241;SDS011;35079;52.704;13.814;2023-08-12T08:19:50;6.25;;;3.05;;
49241;SDS011;35079;52.704;13.814;2023-08-12T08:22:16;5.43;;;2.85;;
49241;SDS011;35079;52.704;13.814;2023-08-12T08:24:42;4.53;;;3.30;;
49241;SDS011;35079;52.704;13.814;2023-08-12T08:27:08;6.53;;;3.10;;
49241;SDS011;35079;52.704;13.814;2023-08-12T08:29:34;4.78;;;2.70;;
49241;SDS011;35079;52.704;13.814;2023-08-12T08:31:59;5.55;;;2.92;;
49241;SDS011;35079;52.704;13.814;2023-08-12T08:34:25;5.32;;;2.80;;
49241;SDS011;35079;52.704;13.814;2023-08-12T08:36:50;4.60;;;2.75;;
49241;SDS011;35079;52.704;13.814;2023-08-12T08:39:16;8.63;;;3.28;;
49241;SDS011;35079;52.704;13.814;2023-08-12T08:41:42;4.35;;;3.00;;
49241;SDS011;35079;52.704;13.814;2023-08-12T08:44:12;5.22;;;3.00;;
49241;SDS011;35079;52.704;13.814;2023-08-12T08:46:39;4.60;;;2.88;;
49241;SDS011;35079;52.704;13.814;2023-08-12T08:49:07;6.68;;;3.47;;
49241;SDS011;35079;52.704;13.814;2023-08-12T08:51:34;6.13;;;3.40;;
49241;SDS011;35079;52.704;13.814;2023-08-12T08:54:01;5.32;;;3.13;;
49241;SDS011;35079;52.704;13.814;2023-08-12T08:56:31;5.10;;;3.38;;
49241;SDS011;35079;52.704;13.814;2023-08-12T08:59:00;3.67;;;2.92;;
49241;SDS011;35079;52.704;13.814;2023-08-12T09:01:26;5.57;;;3.22;;
49241;SDS011;35079;52.704;13.814;2023-08-12T09:03:54;5.38;;;3.78;;
49241;SDS011;35079;52.704;13.814;2023-08-12T09:06:21;6.75;;;3.42;;
49241;SDS011;35079;52.704;13.814;2023-08-12T09:08:48;5.28;;;3.30;;
49241;SDS011;35079;52.704;13.814;2023-08-12T09:11:14;5.47;;;3.20;;
49241;SDS011;35079;52.704;13.814;2023-08-12T09:13:42;4.75;;;3.15;;
49241;SDS011;35079;52.704;13.814;2023-08-12T09:16:07;6.15;;;3.42;;
49241;SDS011;35079;52.704;13.814;2023-08-12T09:18:34;4.63;;;3.40;;
49241;SDS011;35079;52.704;13.814;2023-08-12T09:21:00;5.20;;;3.90;;
49241;SDS011;35079;52.704;13.814;2023-08-12T09:23:26;5.90;;;3.92;;
49241;SDS011;35079;52.704;13.814;2023-08-12T09:25:52;4.53;;;3.40;;
49241;SDS011;35079;52.704;13.814;2023-08-12T09:28:18;7.60;;;4.00;;
49241;SDS011;35079;52.704;13.814;2023-08-12T09:30:49;5.10;;;3.60;;
49241;SDS011;35079;52.704;13.814;2023-08-12T09:33:17;6.00;;;3.65;;
49241;SDS011;35079;52.704;13.814;2023-08-12T09:35:50;5.13;;;3.42;;
49241;SDS011;35079;52.704;13.814;2023-08-12T09:38:16;7.40;;;3.70;;
49241;SDS011;35079;52.704;13.814;2023-08-12T09:40:42;5.75;;;3.80;;
49241;SDS011;35079;52.704;13.814;2023-08-12T09:43:09;6.25;;;4.13;;
49241;SDS011;35079;52.704;13.814;2023-08-12T09:45:36;6.35;;;3.70;;
49241;SDS011;35079;52.704;13.814;2023-08-12T09:48:02;5.78;;;3.72;;
49241;SDS011;35079;52.704;13.814;2023-08-12T09:50:28;14.10;;;4.00;;
49241;SDS011;35079;52.704;13.814;2023-08-12T09:52:54;5.40;;;3.70;;
49241;SDS011;35079;52.704;13.814;2023-08-12T09:55:21;7.85;;;3.95;;
49241;SDS011;35079;52.704;13.814;2023-08-12T09:57:53;5.72;;;3.75;;
49241;SDS011;35079;52.704;13.814;2023-08-12T10:00:20;7.18;;;3.65;;
49241;SDS011;35079;52.704;13.814;2023-08-12T10:02:49;7.18;;;3.88;;
49241;SDS011;35079;52.704;13.814;2023-08-12T10:05:19;3.92;;;3.50;;
49241;SDS011;35079;52.704;13.814;2023-08-12T10:07:47;5.40;;;4.10;;
49241;SDS011;35079;52.704;13.814;2023-08-12T10:10:13;4.68;;;3.70;;
49241;SDS011;35079;52.704;13.814;2023-08-12T10:12:40;7.80;;;3.90;;
49241;SDS011;35079;52.704;13.814;2023-08-12T10:15:06;3.83;;;3.10;;
49241;SDS011;35079;52.704;13.814;2023-08-12T10:17:34;6.32;;;3.90;;
49241;SDS011;35079;52.704;13.814;2023-08-12T10:20:01;4.22;;;3.60;;
49241;SDS011;35079;52.704;13.814;2023-08-12T10:22:29;5.22;;;3.20;;
49241;SDS011;35079;52.704;13.814;2023-08-12T10:24:59;7.45;;;4.10;;
49241;SDS011;35079;52.704;13.814;2023-08-12T10:27:27;5.05;;;3.70;;
49241;SDS011;35079;52.704;13.814;2023-08-12T10:29:55;7.18;;;3.70;;
49241;SDS011;35079;52.704;13.814;2023-08-12T10:32:22;4.32;;;3.40;;
49241;SDS011;35079;52.704;13.814;2023-08-12T10:34:53;6.47;;;3.53;;
49241;SDS011;35079;52.704;13.814;2023-08-12T10:37:21;5.05;;;3.28;;
49241;SDS011;35079;52.704;13.814;2023-08-12T10:39:48;7.57;;;3.70;;
49241;SDS011;35079;52.704;13.814;2023-08-12T10:42:22;4.45;;;3.50;;
49241;SDS011;35079;52.704;13.814;2023-08-12T10:45:07;7.45;;;3.55;;
49241;SDS011;35079;52.704;13.814;2023-08-12T10:47:37;3.45;;;3.13;;
49241;SDS011;35079;52.704;13.814;2023-08-12T10:50:15;7.82;;;3.33;;
49241;SDS011;35079;52.704;13.814;2023-08-12T10:52:45;5.75;;;3.58;;
49241;SDS011;35079;52.704;13.814;2023-08-12T10:55:15;4.18;;;3.78;;
49241;SDS011;35079;52.704;13.814;2023-08-12T10:57:44;3.72;;;3.40;;
49241;SDS011;35079;52.704;13.814;2023-08-12T11:00:10;4.38;;;3.30;;
49241;SDS011;35079;52.704;13.814;2023-08-12T11:02:38;8.75;;;3.78;;
49241;SDS011;35079;52.704;13.814;2023-08-12T11:05:09;7.82;;;3.65;;
49241;SDS011;35079;52.704;13.814;2023-08-12T11:10:09;3.45;;;3.13;;
49241;SDS011;35079;52.704;13.814;2023-08-12T11:12:47;4.85;;;3.60;;
49241;SDS011;35079;52.704;13.814;2023-08-12T11:15:32;5.70;;;3.40;;
49241;SDS011;35079;52.704;13.814;2023-08-12T11:18:02;3.40;;;3.10;;
49241;SDS011;35079;52.704;13.814;2023-08-12T11:20:29;5.85;;;3.90;;
49241;SDS011;35079;52.704;13.814;2023-08-12T11:22:55;5.13;;;3.47;;
49241;SDS011;35079;52.704;13.814;2023-08-12T11:25:23;6.25;;;3.42;;
49241;SDS011;35079;52.704;13.814;2023-08-12T11:27:49;4.75;;;3.22;;
49241;SDS011;35079;52.704;13.814;2023-08-12T11:30:18;4.45;;;3.53;;
49241;SDS011;35079;52.704;13.814;2023-08-12T11:32:46;6.63;;;3.83;;
49241;SDS011;35079;52.704;13.814;2023-08-12T11:35:14;4.00;;;3.42;;
49241;SDS011;35079;52.704;13.814;2023-08-12T11:37:42;3.90;;;3.50;;
49241;SDS011;35079;52.704;13.814;2023-08-12T11:40:10;5.57;;;3.92;;
49241;SDS011;35079;52.704;13.814;2023-08-12T11:42:39;4.25;;;3.08;;
49241;SDS011;35079;52.704;13.814;2023-08-12T11:45:07;7.75;;;3.30;;
49241;SDS011;35079;52.704;13.814;2023-08-12T11:47:33;7.05;;;3.88;;
49241;SDS011;35079;52.704;13.814;2023-08-12T11:50:07;6.95;;;3.72;;
49241;SDS011;35079;52.704;13.814;2023-08-12T11:52:34;7.25;;;3.50;;
49241;SDS011;35079;52.704;13.814;2023-08-12T11:55:00;3.95;;;3.55;;
49241;SDS011;35079;52.704;13.814;2023-08-12T11:57:26;8.73;;;3.80;;
49241;SDS011;35079;52.704;13.814;2023-08-12T11:59:57;6.80;;;3.85;;
49241;SDS011;35079;52.704;13.814;2023-08-12T12:02:24;5.60;;;3.60;;
49241;SDS011;35079;52.704;13.814;2023-08-12T12:04:53;9.55;;;3.97;;
49241;SDS011;35079;52.704;13.814;2023-08-12T12:07:23;7.13;;;4.22;;
49241;SDS011;35079;52.704;13.814;2023-08-12T12:09:50;5.30;;;3.80;;
49241;SDS011;35079;52.704;13.814;2023-08-12T12:12:25;4.05;;;3.28;;
49241;SDS011;35079;52.704;13.814;2023-08-12T12:14:51;5.65;;;3.72;;
49241;SDS011;35079;52.704;13.814;2023-08-12T12:17:20;5.38;;;3.80;;
49241;SDS011;35079;52.704;13.814;2023-08-12T12:19:47;6.85;;;3.38;;
49241;SDS011;35079;52.704;13.814;2023-08-12T12:22:16;4.35;;;3.58;;
49241;SDS011;35079;52.704;13.814;2023-08-12T12:24:45;4.78;;;3.45;;
49241;SDS011;35079;52.704;13.814;2023-08-12T12:27:12;6.35;;;3.97;;
49241;SDS011;35079;52.704;13.814;2023-08-12T12:29:38;5.43;;;3.30;;
49241;SDS011;35079;52.704;13.814;2023-08-12T12:32:04;5.28;;;3.47;;
49241;SDS011;35079;52.704;13.814;2023-08-12T12:34:30;3.95;;;3.30;;
49241;SDS011;35079;52.704;13.814;2023-08-12T12:36:55;6.45;;;3.53;;
49241;SDS011;35079;52.704;13.814;2023-08-12T12:39:21;8.60;;;3.80;;
49241;SDS011;35079;52.704;13.814;2023-08-12T12:41:48;7.70;;;3.67;;
49241;SDS011;35079;52.704;13.814;2023-08-12T12:44:14;4.20;;;3.80;;
49241;SDS011;35079;52.704;13.814;2023-08-12T12:46:39;5.43;;;3.25;;
49241;SDS011;35079;52.704;13.814;2023-08-12T12:49:05;5.40;;;3.97;;
49241;SDS011;35079;52.704;13.814;2023-08-12T12:51:31;5.38;;;3.60;;
49241;SDS011;35079;52.704;13.814;2023-08-12T12:53:57;11.73;;;4.43;;
49241;SDS011;35079;52.704;13.814;2023-08-12T12:56:22;7.88;;;3.95;;
49241;SDS011;35079;52.704;13.814;2023-08-12T12:58:48;6.95;;;4.05;;
49241;SDS011;35079;52.704;13.814;2023-08-12T13:01:14;5.13;;;3.50;;
49241;SDS011;35079;52.704;13.814;2023-08-12T13:03:39;10.43;;;4.22;;
49241;SDS011;35079;52.704;13.814;2023-08-12T13:06:05;5.28;;;3.70;;
49241;SDS011;35079;52.704;13.814;2023-08-12T13:08:31;4.53;;;3.78;;
49241;SDS011;35079;52.704;13.814;2023-08-12T13:10:56;4.10;;;3.70;;
49241;SDS011;35079;52.704;13.814;2023-08-12T13:13:22;6.35;;;4.10;;
49241;SDS011;35079;52.704;13.814;2023-08-12T13:15:48;6.85;;;4.78;;
49241;SDS011;35079;52.704;13.814;2023-08-12T13:18:14;5.47;;;3.67;;
49241;SDS011;35079;52.704;13.814;2023-08-12T13:20:40;5.25;;;4.18;;
49241;SDS011;35079;52.704;13.814;2023-08-12T13:23:06;5.70;;;4.03;;
49241;SDS011;35079;52.704;13.814;2023-08-12T13:25:32;6.18;;;3.72;;
49241;SDS011;35079;52.704;13.814;2023-08-12T13:27:59;4.10;;;3.67;;
49241;SDS011;35079;52.704;13.814;2023-08-12T13:30:25;5.00;;;4.50;;
49241;SDS011;35079;52.704;13.814;2023-08-12T13:32:51;6.55;;;4.43;;
49241;SDS011;35079;52.704;13.814;2023-08-12T13:35:17;5.57;;;3.83;;
49241;SDS011;35079;52.704;13.814;2023-08-12T13:37:43;4.78;;;3.88;;
49241;SDS011;35079;52.704;13.814;2023-08-12T13:40:08;4.82;;;3.80;;
49241;SDS011;35079;52.704;13.814;2023-08-12T13:42:35;5.40;;;3.67;;
49241;SDS011;35079;52.704;13.814;2023-08-12T13:45:00;6.43;;;4.18;;
49241;SDS011;35079;52.704;13.814;2023-08-12T13:47:26;5.93;;;4.20;;
49241;SDS011;35079;52.704;13.814;2023-08-12T13:49:52;4.13;;;3.72;;
49241;SDS011;35079;52.704;13.814;2023-08-12T13:52:18;5.95;;;3.72;;
49241;SDS011;35079;52.704;13.814;2023-08-12T13:54:43;4.00;;;3.53;;
49241;SDS011;35079;52.704;13.814;2023-08-12T13:57:09;3.80;;;3.28;;
49241;SDS011;35079;52.704;13.814;2023-08-12T13:59:34;6.22;;;3.42;;
49241;SDS011;35079;52.704;13.814;2023-08-12T14:02:00;5.15;;;3.20;;
49241;SDS011;35079;52.704;13.814;2023-08-12T14:04:25;4.43;;;3.65;;
49241;SDS011;35079;52.704;13.814;2023-08-12T14:06:51;4.68;;;3.50;;
49241;SDS011;35079;52.704;13.814;2023-08-12T14:09:17;6.55;;;3.22;;
49241;SDS011;35079;52.704;13.814;2023-08-12T14:11:43;3.40;;;3.10;;
49241;SDS011;35079;52.704;13.814;2023-08-12T14:14:08;10.30;;;3.50;;
49241;SDS011;35079;52.704;13.814;2023-08-12T14:16:35;4.38;;;3.13;;
49241;SDS011;35079;52.704;13.814;2023-08-12T14:19:00;5.20;;;3.25;;
49241;SDS011;35079;52.704;13.814;2023-08-12T14:21:26;6.05;;;3.30;;
49241;SDS011;35079;52.704;13.814;2023-08-12T14:23:52;4.97;;;3.30;;
49241;SDS011;35079;52.704;13.814;2023-08-12T14:26:17;3.72;;;3.10;;
49241;SDS011;35079;52.704;13.814;2023-08-12T14:28:43;4.07;;;2.83;;
49241;SDS011;35079;52.704;13.814;2023-08-12T14:31:08;3.45;;;3.10;;
49241;SDS011;35079;52.704;13.814;2023-08-12T14:33:34;3.20;;;2.90;;